sensor_id;sensor_type;location;lat;lon;timestamp;pressure;altitude;pressure_sealevel;temperature;humidity
60355;BME280;46198;51.464;-0.066;2022-11-21T00:02:21;100775.16;;;5.90;100.00
60355;BME280;46198;51.464;-0.066;2022-11-21T00:04:49;100766.41;;;5.88;100.00
60355;BME280;46198;51.464;-0.066;2022-11-21T00:07:17;100763.31;;;5.91;100.00
60355;BME280;46198;51.464;-0.066;2022-11-21T00:09:45;100762.31;;;5.92;100.00
60355;BME280;46198;51.464;-0.066;2022-11-21T00:12:14;100763.00;;;5.94;100.00
60355;BME280;46198;51.464;-0.066;2022-11-21T00:14:46;100733.06;;;5.89;100.00
60355;BME280;46198;51.464;-0.066;2022-11-21T00:17:14;100727.69;;;5.89;100.00
60355;BME280;46198;51.464;-0.066;2022-11-21T00:19:43;100713.34;;;5.89;100.00
60355;BME280;46198;51.464;-0.066;2022-11-21T00:22:14;100707.59;;;5.92;100.00
60355;BME280;46198;51.464;-0.066;2022-11-21T00:24:42;100704.91;;;5.92;100.00
60355;BME280;46198;51.464;-0.066;2022-11-21T00:27:10;100700.50;;;5.91;100.00
60355;BME280;46198;51.464;-0.066;2022-11-21T00:29:38;100706.13;;;5.89;100.00
60355;BME280;46198;51.464;-0.066;2022-11-21T00:32:08;100709.16;;;5.86;100.00
60355;BME280;46198;51.464;-0.066;2022-11-21T00:34:36;100700.91;;;5.88;100.00
60355;BME280;46198;51.464;-0.066;2022-11-21T00:37:04;100711.28;;;5.91;100.00
60355;BME280;46198;51.464;-0.066;2022-11-21T00:39:32;100712.97;;;5.92;100.00
60355;BME280;46198;51.464;-0.066;2022-11-21T00:42:00;100703.88;;;5.93;100.00
60355;BME280;46198;51.464;-0.066;2022-11-21T00:44:28;100710.47;;;5.90;100.00
60355;BME280;46198;51.464;-0.066;2022-11-21T00:47:00;100710.28;;;5.92;100.00
60355;BME280;46198;51.464;-0.066;2022-11-21T00:49:30;100714.66;;;5.93;100.00
60355;BME280;46198;51.464;-0.066;2022-11-21T00:51:58;100712.97;;;5.92;100.00
60355;BME280;46198;51.464;-0.066;2022-11-21T00:54:26;100704.25;;;5.90;100.00
60355;BME280;46198;51.464;-0.066;2022-11-21T00:56:55;100712.34;;;5.90;100.00
60355;BME280;46198;51.464;-0.066;2022-11-21T00:59:23;100701.34;;;5.91;100.00
60355;BME280;46198;51.464;-0.066;2022-11-21T01:01:51;100705.25;;;5.89;100.00
60355;BME280;46198;51.464;-0.066;2022-11-21T01:04:19;100705.91;;;5.91;100.00
60355;BME280;46198;51.464;-0.066;2022-11-21T01:06:49;100698.47;;;5.93;100.00
60355;BME280;46198;51.464;-0.066;2022-11-21T01:09:17;100694.78;;;5.94;100.00
60355;BME280;46198;51.464;-0.066;2022-11-21T01:11:45;100691.06;;;5.95;100.00
60355;BME280;46198;51.464;-0.066;2022-11-21T01:14:14;100695.63;;;5.94;100.00
60355;BME280;46198;51.464;-0.066;2022-11-21T01:16:42;100698.31;;;5.94;100.00
60355;BME280;46198;51.464;-0.066;2022-11-21T01:19:10;100690.25;;;5.94;100.00
60355;BME280;46198;51.464;-0.066;2022-11-21T01:21:38;100684.84;;;5.94;100.00
60355;BME280;46198;51.464;-0.066;2022-11-21T01:24:10;100685.28;;;5.98;100.00
60355;BME280;46198;51.464;-0.066;2022-11-21T01:26:38;100677.38;;;5.96;100.00
60355;BME280;46198;51.464;-0.066;2022-11-21T01:29:06;100681.56;;;5.99;100.00
60355;BME280;46198;51.464;-0.066;2022-11-21T01:31:34;100666.41;;;5.98;100.00
60355;BME280;46198;51.464;-0.066;2022-11-21T01:34:02;100665.97;;;5.94;100.00
60355;BME280;46198;51.464;-0.066;2022-11-21T01:36:32;100668.06;;;5.99;100.00
60355;BME280;46198;51.464;-0.066;2022-11-21T01:39:02;100651.09;;;5.98;100.00
60355;BME280;46198;51.464;-0.066;2022-11-21T01:41:34;100656.28;;;6.00;100.00
60355;BME280;46198;51.464;-0.066;2022-11-21T01:44:09;100649.69;;;6.03;100.00
60355;BME280;46198;51.464;-0.066;2022-11-21T01:46:40;100636.38;;;6.01;100.00
60355;BME280;46198;51.464;-0.066;2022-11-21T01:49:10;100626.44;;;6.02;100.00
60355;BME280;46198;51.464;-0.066;2022-11-21T01:51:42;100638.69;;;6.04;100.00
60355;BME280;46198;51.464;-0.066;2022-11-21T01:54:15;100650.50;;;6.03;100.00
60355;BME280;46198;51.464;-0.066;2022-11-21T01:56:50;100640.56;;;6.04;100.00
60355;BME280;46198;51.464;-0.066;2022-11-21T01:59:25;100609.25;;;6.03;100.00
60355;BME280;46198;51.464;-0.066;2022-11-21T02:01:55;100613.59;;;6.04;100.00
60355;BME280;46198;51.464;-0.066;2022-11-21T02:04:27;100632.66;;;6.02;100.00
60355;BME280;46198;51.464;-0.066;2022-11-21T02:06:58;100618.34;;;6.02;100.00
60355;BME280;46198;51.464;-0.066;2022-11-21T02:09:27;100612.78;;;6.03;100.00
60355;BME280;46198;51.464;-0.066;2022-11-21T02:12:01;100624.56;;;6.02;100.00
60355;BME280;46198;51.464;-0.066;2022-11-21T02:14:32;100605.69;;;6.02;100.00
60355;BME280;46198;51.464;-0.066;2022-11-21T02:17:04;100597.34;;;5.97;100.00
60355;BME280;46198;51.464;-0.066;2022-11-21T02:19:42;100595.69;;;5.96;100.00
60355;BME280;46198;51.464;-0.066;2022-11-21T02:22:23;100586.22;;;6.00;100.00
60355;BME280;46198;51.464;-0.066;2022-11-21T02:25:04;100583.28;;;5.95;100.00
60355;BME280;46198;51.464;-0.066;2022-11-21T02:27:33;100584.28;;;5.94;100.00
60355;BME280;46198;51.464;-0.066;2022-11-21T02:30:02;100571.16;;;5.91;100.00
60355;BME280;46198;51.464;-0.066;2022-11-21T02:32:33;100571.44;;;5.96;100.00
60355;BME280;46198;51.464;-0.066;2022-11-21T02:35:01;100574.06;;;5.89;100.00
60355;BME280;46198;51.464;-0.066;2022-11-21T02:37:30;100567.84;;;5.89;100.00
60355;BME280;46198;51.464;-0.066;2022-11-21T02:40:03;100565.75;;;5.84;100.00
60355;BME280;46198;51.464;-0.066;2022-11-21T02:42:36;100571.97;;;5.85;100.00
60355;BME280;46198;51.464;-0.066;2022-11-21T02:45:10;100559.13;;;5.87;100.00
60355;BME280;46198;51.464;-0.066;2022-11-21T02:47:41;100555.78;;;5.85;100.00
60355;BME280;46198;51.464;-0.066;2022-11-21T02:50:13;100552.44;;;5.83;100.00
60355;BME280;46198;51.464;-0.066;2022-11-21T02:52:41;100552.84;;;5.80;100.00
60355;BME280;46198;51.464;-0.066;2022-11-21T02:55:11;100553.69;;;5.80;100.00
60355;BME280;46198;51.464;-0.066;2022-11-21T02:57:41;100543.72;;;5.81;100.00
60355;BME280;46198;51.464;-0.066;2022-11-21T03:00:10;100539.81;;;5.83;100.00
60355;BME280;46198;51.464;-0.066;2022-11-21T03:02:38;100539.38;;;5.80;100.00
60355;BME280;46198;51.464;-0.066;2022-11-21T03:05:08;100533.56;;;5.76;100.00
60355;BME280;46198;51.464;-0.066;2022-11-21T03:07:36;100535.84;;;5.79;100.00
60355;BME280;46198;51.464;-0.066;2022-11-21T03:10:05;100519.00;;;5.70;100.00
60355;BME280;46198;51.464;-0.066;2022-11-21T03:12:36;100511.31;;;5.67;100.00
60355;BME280;46198;51.464;-0.066;2022-11-21T03:15:06;100503.84;;;5.69;100.00
60355;BME280;46198;51.464;-0.066;2022-11-21T03:17:34;100507.09;;;5.58;100.00
60355;BME280;46198;51.464;-0.066;2022-11-21T03:20:03;100498.13;;;5.51;100.00
60355;BME280;46198;51.464;-0.066;2022-11-21T03:22:34;100494.41;;;5.52;100.00
60355;BME280;46198;51.464;-0.066;2022-11-21T03:25:03;100490.03;;;5.51;100.00
60355;BME280;46198;51.464;-0.066;2022-11-21T03:27:31;100495.63;;;5.49;100.00
60355;BME280;46198;51.464;-0.066;2022-11-21T03:30:00;100480.75;;;5.53;100.00
60355;BME280;46198;51.464;-0.066;2022-11-21T03:32:29;100484.03;;;5.49;100.00
60355;BME280;46198;51.464;-0.066;2022-11-21T03:34:57;100477.38;;;5.45;100.00
60355;BME280;46198;51.464;-0.066;2022-11-21T03:37:25;100465.13;;;5.42;100.00
60355;BME280;46198;51.464;-0.066;2022-11-21T03:39:55;100463.03;;;5.38;100.00
60355;BME280;46198;51.464;-0.066;2022-11-21T03:42:23;100445.59;;;5.33;100.00
60355;BME280;46198;51.464;-0.066;2022-11-21T03:44:51;100435.47;;;5.36;100.00
60355;BME280;46198;51.464;-0.066;2022-11-21T03:47:21;100432.13;;;5.33;100.00
60355;BME280;46198;51.464;-0.066;2022-11-21T03:49:50;100427.94;;;5.24;100.00
60355;BME280;46198;51.464;-0.066;2022-11-21T03:52:18;100417.34;;;5.23;100.00
60355;BME280;46198;51.464;-0.066;2022-11-21T03:54:46;100404.47;;;5.18;100.00
60355;BME280;46198;51.464;-0.066;2022-11-21T03:57:14;100404.84;;;5.15;100.00
60355;BME280;46198;51.464;-0.066;2022-11-21T03:59:42;100395.53;;;5.11;100.00
60355;BME280;46198;51.464;-0.066;2022-11-21T04:02:11;100391.53;;;5.07;100.00
60355;BME280;46198;51.464;-0.066;2022-11-21T04:04:40;100381.16;;;5.04;100.00
60355;BME280;46198;51.464;-0.066;2022-11-21T04:07:08;100377.00;;;5.01;100.00
60355;BME280;46198;51.464;-0.066;2022-11-21T04:09:36;100367.84;;;4.96;100.00
60355;BME280;46198;51.464;-0.066;2022-11-21T04:12:05;100362.22;;;4.91;100.00
60355;BME280;46198;51.464;-0.066;2022-11-21T04:14:33;100355.59;;;4.86;100.00
60355;BME280;46198;51.464;-0.066;2022-11-21T04:17:01;100346.22;;;4.82;100.00
60355;BME280;46198;51.464;-0.066;2022-11-21T04:19:30;100345.78;;;4.79;100.00
60355;BME280;46198;51.464;-0.066;2022-11-21T04:21:59;100346.63;;;4.79;100.00
60355;BME280;46198;51.464;-0.066;2022-11-21T04:24:27;100336.91;;;4.78;100.00
60355;BME280;46198;51.464;-0.066;2022-11-21T04:26:56;100329.22;;;4.75;100.00
60355;BME280;46198;51.464;-0.066;2022-11-21T04:29:24;100321.72;;;4.71;100.00
60355;BME280;46198;51.464;-0.066;2022-11-21T04:31:52;100315.06;;;4.66;100.00
60355;BME280;46198;51.464;-0.066;2022-11-21T04:34:23;100316.28;;;4.64;100.00
60355;BME280;46198;51.464;-0.066;2022-11-21T04:36:51;100310.28;;;4.62;100.00
60355;BME280;46198;51.464;-0.066;2022-11-21T04:39:21;100302.22;;;4.62;100.00
60355;BME280;46198;51.464;-0.066;2022-11-21T04:41:49;100303.88;;;4.63;100.00
60355;BME280;46198;51.464;-0.066;2022-11-21T04:44:17;100293.94;;;4.63;100.00
60355;BME280;46198;51.464;-0.066;2022-11-21T04:46:48;100286.00;;;4.55;100.00
60355;BME280;46198;51.464;-0.066;2022-11-21T04:49:17;100271.75;;;4.55;100.00
60355;BME280;46198;51.464;-0.066;2022-11-21T04:51:45;100247.53;;;4.55;100.00
60355;BME280;46198;51.464;-0.066;2022-11-21T04:54:13;100250.22;;;4.55;100.00
60355;BME280;46198;51.464;-0.066;2022-11-21T04:56:43;100254.56;;;4.56;100.00
60355;BME280;46198;51.464;-0.066;2022-11-21T04:59:11;100248.38;;;4.55;100.00
60355;BME280;46198;51.464;-0.066;2022-11-21T05:01:39;100245.03;;;4.53;100.00
60355;BME280;46198;51.464;-0.066;2022-11-21T05:04:07;100240.03;;;4.50;100.00
60355;BME280;46198;51.464;-0.066;2022-11-21T05:06:35;100242.56;;;4.52;100.00
60355;BME280;46198;51.464;-0.066;2022-11-21T05:09:03;100236.34;;;4.51;100.00
60355;BME280;46198;51.464;-0.066;2022-11-21T05:11:31;100231.38;;;4.48;100.00
60355;BME280;46198;51.464;-0.066;2022-11-21T05:14:18;100226.00;;;4.48;100.00
60355;BME280;46198;51.464;-0.066;2022-11-21T05:16:47;100224.53;;;4.46;100.00
60355;BME280;46198;51.464;-0.066;2022-11-21T05:19:15;100216.47;;;4.46;100.00
60355;BME280;46198;51.464;-0.066;2022-11-21T05:21:43;100210.44;;;4.43;100.00
60355;BME280;46198;51.464;-0.066;2022-11-21T05:24:12;100209.78;;;4.41;100.00
60355;BME280;46198;51.464;-0.066;2022-11-21T05:26:40;100200.50;;;4.44;100.00
60355;BME280;46198;51.464;-0.066;2022-11-21T05:29:08;100191.22;;;4.47;100.00
60355;BME280;46198;51.464;-0.066;2022-11-21T05:31:38;100184.22;;;4.52;100.00
60355;BME280;46198;51.464;-0.066;2022-11-21T05:34:06;100173.91;;;4.56;100.00
60355;BME280;46198;51.464;-0.066;2022-11-21T05:36:34;100165.41;;;4.52;100.00
60355;BME280;46198;51.464;-0.066;2022-11-21T05:39:02;100167.28;;;4.52;100.00
60355;BME280;46198;51.464;-0.066;2022-11-21T05:41:30;100165.22;;;4.54;100.00
60355;BME280;46198;51.464;-0.066;2022-11-21T05:43:58;100165.22;;;4.54;100.00
60355;BME280;46198;51.464;-0.066;2022-11-21T05:46:25;100160.09;;;4.59;100.00
60355;BME280;46198;51.464;-0.066;2022-11-21T05:48:55;100140.25;;;4.60;100.00
60355;BME280;46198;51.464;-0.066;2022-11-21T05:51:25;100146.03;;;4.63;100.00
60355;BME280;46198;51.464;-0.066;2022-11-21T05:53:53;100139.84;;;4.63;100.00
60355;BME280;46198;51.464;-0.066;2022-11-21T05:56:24;100142.13;;;4.66;100.00
60355;BME280;46198;51.464;-0.066;2022-11-21T05:58:53;100133.41;;;4.64;100.00
60355;BME280;46198;51.464;-0.066;2022-11-21T06:01:23;100130.53;;;4.65;100.00
60355;BME280;46198;51.464;-0.066;2022-11-21T06:04:07;100136.75;;;4.66;100.00
60355;BME280;46198;51.464;-0.066;2022-11-21T06:06:35;100117.53;;;4.69;100.00
60355;BME280;46198;51.464;-0.066;2022-11-21T06:09:03;100114.41;;;4.65;100.00
60355;BME280;46198;51.464;-0.066;2022-11-21T06:11:32;100092.09;;;4.72;100.00
60355;BME280;46198;51.464;-0.066;2022-11-21T06:14:00;100085.50;;;4.74;100.00
60355;BME280;46198;51.464;-0.066;2022-11-21T06:16:28;100090.47;;;4.77;100.00
60355;BME280;46198;51.464;-0.066;2022-11-21T06:18:56;100077.66;;;4.79;100.00
60355;BME280;46198;51.464;-0.066;2022-11-21T06:21:27;100064.25;;;4.86;100.00
60355;BME280;46198;51.464;-0.066;2022-11-21T06:23:56;100068.16;;;4.83;100.00
60355;BME280;46198;51.464;-0.066;2022-11-21T06:26:26;100067.34;;;4.89;100.00
60355;BME280;46198;51.464;-0.066;2022-11-21T06:28:54;100062.78;;;4.90;100.00
60355;BME280;46198;51.464;-0.066;2022-11-21T06:31:24;100048.13;;;4.93;100.00
60355;BME280;46198;51.464;-0.066;2022-11-21T06:33:53;100049.16;;;4.92;100.00
60355;BME280;46198;51.464;-0.066;2022-11-21T06:36:26;100042.09;;;4.91;100.00
60355;BME280;46198;51.464;-0.066;2022-11-21T06:38:54;100030.50;;;4.90;100.00
60355;BME280;46198;51.464;-0.066;2022-11-21T06:41:24;100036.31;;;4.94;100.00
60355;BME280;46198;51.464;-0.066;2022-11-21T06:43:52;100031.16;;;4.92;100.00
60355;BME280;46198;51.464;-0.066;2022-11-21T06:46:20;100027.22;;;4.95;100.00
60355;BME280;46198;51.464;-0.066;2022-11-21T06:48:52;100013.38;;;4.98;100.00
60355;BME280;46198;51.464;-0.066;2022-11-21T06:51:22;100011.91;;;5.02;100.00
60355;BME280;46198;51.464;-0.066;2022-11-21T06:53:53;100009.22;;;5.02;100.00
60355;BME280;46198;51.464;-0.066;2022-11-21T06:56:23;100017.28;;;5.02;100.00
60355;BME280;46198;51.464;-0.066;2022-11-21T06:58:51;100004.47;;;5.04;100.00
60355;BME280;46198;51.464;-0.066;2022-11-21T07:01:19;99998.06;;;5.11;100.00
60355;BME280;46198;51.464;-0.066;2022-11-21T07:03:48;99996.22;;;5.12;100.00
60355;BME280;46198;51.464;-0.066;2022-11-21T07:06:16;99990.81;;;5.12;100.00
60355;BME280;46198;51.464;-0.066;2022-11-21T07:08:44;99984.22;;;5.15;100.00
60355;BME280;46198;51.464;-0.066;2022-11-21T07:11:26;99968.91;;;5.22;100.00
60355;BME280;46198;51.464;-0.066;2022-11-21T07:13:55;99947.81;;;5.32;100.00
60355;BME280;46198;51.464;-0.066;2022-11-21T07:16:22;99938.28;;;5.29;100.00
60355;BME280;46198;51.464;-0.066;2022-11-21T07:18:52;99932.47;;;5.32;100.00
60355;BME280;46198;51.464;-0.066;2022-11-21T07:21:20;99936.41;;;5.30;100.00
60355;BME280;46198;51.464;-0.066;2022-11-21T07:23:48;99929.56;;;5.41;100.00
60355;BME280;46198;51.464;-0.066;2022-11-21T07:26:16;99923.75;;;5.44;100.00
60355;BME280;46198;51.464;-0.066;2022-11-21T07:28:46;99919.41;;;5.43;100.00
60355;BME280;46198;51.464;-0.066;2022-11-21T07:31:14;99915.06;;;5.48;100.00
60355;BME280;46198;51.464;-0.066;2022-11-21T07:33:42;99900.56;;;5.49;100.00
60355;BME280;46198;51.464;-0.066;2022-11-21T07:36:12;99893.94;;;5.52;100.00
60355;BME280;46198;51.464;-0.066;2022-11-21T07:38:40;99897.84;;;5.56;100.00
60355;BME280;46198;51.464;-0.066;2022-11-21T07:41:09;99894.91;;;5.64;100.00
60355;BME280;46198;51.464;-0.066;2022-11-21T07:43:37;99895.97;;;5.63;100.00
60355;BME280;46198;51.464;-0.066;2022-11-21T07:46:06;99896.38;;;5.67;100.00
60355;BME280;46198;51.464;-0.066;2022-11-21T07:48:34;99890.97;;;5.73;100.00
60355;BME280;46198;51.464;-0.066;2022-11-21T07:51:04;99890.31;;;5.78;100.00
60355;BME280;46198;51.464;-0.066;2022-11-21T07:53:32;99873.16;;;5.79;100.00
60355;BME280;46198;51.464;-0.066;2022-11-21T07:56:00;99873.31;;;5.91;100.00
60355;BME280;46198;51.464;-0.066;2022-11-21T07:58:29;99860.88;;;5.96;100.00
60355;BME280;46198;51.464;-0.066;2022-11-21T08:00:57;99859.84;;;5.97;100.00
60355;BME280;46198;51.464;-0.066;2022-11-21T08:03:29;99850.50;;;6.00;100.00
60355;BME280;46198;51.464;-0.066;2022-11-21T08:06:00;99843.22;;;6.07;100.00
60355;BME280;46198;51.464;-0.066;2022-11-21T08:08:29;99832.44;;;6.07;100.00
60355;BME280;46198;51.464;-0.066;2022-11-21T08:10:57;99833.66;;;6.11;100.00
60355;BME280;46198;51.464;-0.066;2022-11-21T08:13:27;99823.47;;;6.13;100.00
60355;BME280;46198;51.464;-0.066;2022-11-21T08:15:56;99820.13;;;6.18;100.00
60355;BME280;46198;51.464;-0.066;2022-11-21T08:18:24;99798.97;;;6.21;100.00
60355;BME280;46198;51.464;-0.066;2022-11-21T08:20:54;99803.94;;;6.25;100.00
60355;BME280;46198;51.464;-0.066;2022-11-21T08:23:22;99794.00;;;6.18;100.00
60355;BME280;46198;51.464;-0.066;2022-11-21T08:25:50;99795.06;;;6.17;100.00
60355;BME280;46198;51.464;-0.066;2022-11-21T08:28:18;99791.31;;;6.18;100.00
60355;BME280;46198;51.464;-0.066;2022-11-21T08:30:46;99800.41;;;6.24;100.00
60355;BME280;46198;51.464;-0.066;2022-11-21T08:33:14;99800.00;;;6.20;100.00
60355;BME280;46198;51.464;-0.066;2022-11-21T08:35:43;99791.06;;;6.27;100.00
60355;BME280;46198;51.464;-0.066;2022-11-21T08:38:13;99770.91;;;6.29;100.00
60355;BME280;46198;51.464;-0.066;2022-11-21T08:40:41;99775.88;;;6.32;100.00
60355;BME280;46198;51.464;-0.066;2022-11-21T08:43:09;99778.97;;;6.36;100.00
60355;BME280;46198;51.464;-0.066;2022-11-21T08:45:37;99781.69;;;6.36;100.00
60355;BME280;46198;51.464;-0.066;2022-11-21T08:48:08;99760.09;;;6.36;100.00
60355;BME280;46198;51.464;-0.066;2022-11-21T08:50:37;99739.56;;;6.35;100.00
60355;BME280;46198;51.464;-0.066;2022-11-21T08:53:05;99755.34;;;6.38;100.00
60355;BME280;46198;51.464;-0.066;2022-11-21T08:55:35;99740.56;;;6.40;100.00
60355;BME280;46198;51.464;-0.066;2022-11-21T08:58:03;99736.50;;;6.56;100.00
60355;BME280;46198;51.464;-0.066;2022-11-21T09:00:31;99733.78;;;6.56;100.00
60355;BME280;46198;51.464;-0.066;2022-11-21T09:03:03;99729.63;;;6.60;100.00
60355;BME280;46198;51.464;-0.066;2022-11-21T09:05:31;99727.09;;;6.65;100.00
60355;BME280;46198;51.464;-0.066;2022-11-21T09:08:00;99725.75;;;6.75;100.00
60355;BME280;46198;51.464;-0.066;2022-11-21T09:10:28;99710.47;;;6.69;100.00
60355;BME280;46198;51.464;-0.066;2022-11-21T09:12:58;99695.88;;;6.76;100.00
60355;BME280;46198;51.464;-0.066;2022-11-21T09:15:26;99685.06;;;6.76;100.00
60355;BME280;46198;51.464;-0.066;2022-11-21T09:18:23;99665.50;;;6.81;100.00
60355;BME280;46198;51.464;-0.066;2022-11-21T09:20:52;99669.94;;;6.94;100.00
60355;BME280;46198;51.464;-0.066;2022-11-21T09:23:20;99655.16;;;6.96;100.00
60355;BME280;46198;51.464;-0.066;2022-11-21T09:25:48;99656.38;;;7.00;100.00
60355;BME280;46198;51.464;-0.066;2022-11-21T09:28:17;99652.25;;;6.98;100.00
60355;BME280;46198;51.464;-0.066;2022-11-21T09:30:45;99644.91;;;7.05;100.00
60355;BME280;46198;51.464;-0.066;2022-11-21T09:33:15;99643.63;;;7.07;100.00
60355;BME280;46198;51.464;-0.066;2022-11-21T09:35:43;99631.78;;;7.08;100.00
60355;BME280;46198;51.464;-0.066;2022-11-21T09:38:12;99623.59;;;7.15;100.00
60355;BME280;46198;51.464;-0.066;2022-11-21T09:40:47;99617.13;;;7.16;100.00
60355;BME280;46198;51.464;-0.066;2022-11-21T09:43:36;99608.38;;;7.21;100.00
60355;BME280;46198;51.464;-0.066;2022-11-21T09:46:10;99606.63;;;7.26;100.00
60355;BME280;46198;51.464;-0.066;2022-11-21T09:48:46;99592.31;;;7.26;100.00
60355;BME280;46198;51.464;-0.066;2022-11-21T09:51:18;99585.53;;;7.35;100.00
60355;BME280;46198;51.464;-0.066;2022-11-21T09:53:53;99589.75;;;7.31;100.00
60355;BME280;46198;51.464;-0.066;2022-11-21T09:56:25;99580.72;;;7.37;100.00
60355;BME280;46198;51.464;-0.066;2022-11-21T09:59:07;99578.75;;;7.44;100.00
60355;BME280;46198;51.464;-0.066;2022-11-21T10:01:39;99578.75;;;7.44;100.00
60355;BME280;46198;51.464;-0.066;2022-11-21T10:04:08;99571.47;;;7.45;100.00
60355;BME280;46198;51.464;-0.066;2022-11-21T10:06:41;99546.03;;;7.52;100.00
60355;BME280;46198;51.464;-0.066;2022-11-21T10:09:18;99526.50;;;7.50;100.00
60355;BME280;46198;51.464;-0.066;2022-11-21T10:11:57;99504.31;;;7.48;100.00
60355;BME280;46198;51.464;-0.066;2022-11-21T10:14:56;99508.22;;;7.52;100.00
60355;BME280;46198;51.464;-0.066;2022-11-21T10:17:38;99500.44;;;7.56;100.00
60355;BME280;46198;51.464;-0.066;2022-11-21T10:20:21;99497.53;;;7.58;100.00
60355;BME280;46198;51.464;-0.066;2022-11-21T10:23:03;99481.31;;;7.58;100.00
60355;BME280;46198;51.464;-0.066;2022-11-21T10:25:37;99467.09;;;7.62;100.00
60355;BME280;46198;51.464;-0.066;2022-11-21T10:28:12;99468.50;;;7.65;100.00
60355;BME280;46198;51.464;-0.066;2022-11-21T10:30:45;99467.94;;;7.63;100.00
60355;BME280;46198;51.464;-0.066;2022-11-21T10:33:19;99458.63;;;7.70;100.00
60355;BME280;46198;51.464;-0.066;2022-11-21T10:35:52;99455.59;;;7.78;100.00
60355;BME280;46198;51.464;-0.066;2022-11-21T10:38:26;99457.00;;;7.81;100.00
60355;BME280;46198;51.464;-0.066;2022-11-21T10:41:00;99444.56;;;7.80;100.00
60355;BME280;46198;51.464;-0.066;2022-11-21T10:43:34;99444.69;;;7.85;100.00
60355;BME280;46198;51.464;-0.066;2022-11-21T10:46:24;99439.59;;;7.89;100.00
60355;BME280;46198;51.464;-0.066;2022-11-21T10:48:55;99418.25;;;7.87;100.00
60355;BME280;46198;51.464;-0.066;2022-11-21T10:51:34;99399.31;;;7.87;100.00
60355;BME280;46198;51.464;-0.066;2022-11-21T10:54:06;99370.03;;;7.84;100.00
60355;BME280;46198;51.464;-0.066;2022-11-21T10:56:55;99352.91;;;7.90;100.00
60355;BME280;46198;51.464;-0.066;2022-11-21T10:59:27;99324.69;;;7.86;100.00
60355;BME280;46198;51.464;-0.066;2022-11-21T11:02:00;99330.69;;;7.88;100.00
60355;BME280;46198;51.464;-0.066;2022-11-21T11:04:30;99326.91;;;7.89;100.00
60355;BME280;46198;51.464;-0.066;2022-11-21T11:07:20;99303.53;;;7.95;100.00
60355;BME280;46198;51.464;-0.066;2022-11-21T11:09:49;99282.75;;;7.95;100.00
60355;BME280;46198;51.464;-0.066;2022-11-21T11:12:23;99270.38;;;7.99;100.00
60355;BME280;46198;51.464;-0.066;2022-11-21T11:15:19;99256.38;;;8.03;100.00
60355;BME280;46198;51.464;-0.066;2022-11-21T11:17:54;99263.19;;;8.05;100.00
60355;BME280;46198;51.464;-0.066;2022-11-21T11:20:35;99252.38;;;8.05;100.00
60355;BME280;46198;51.464;-0.066;2022-11-21T11:23:15;99244.13;;;8.12;100.00
60355;BME280;46198;51.464;-0.066;2022-11-21T11:25:45;99221.91;;;8.10;100.00
60355;BME280;46198;51.464;-0.066;2022-11-21T11:28:14;99212.16;;;8.09;100.00
60355;BME280;46198;51.464;-0.066;2022-11-21T11:30:42;99210.22;;;8.21;100.00
60355;BME280;46198;51.464;-0.066;2022-11-21T11:33:30;99198.31;;;8.22;100.00
60355;BME280;46198;51.464;-0.066;2022-11-21T11:36:14;99184.34;;;8.25;100.00
60355;BME280;46198;51.464;-0.066;2022-11-21T11:38:51;99177.94;;;8.31;100.00
60355;BME280;46198;51.464;-0.066;2022-11-21T11:41:37;99160.06;;;8.30;100.00
60355;BME280;46198;51.464;-0.066;2022-11-21T11:44:27;99140.91;;;8.32;100.00
60355;BME280;46198;51.464;-0.066;2022-11-21T11:47:18;99149.59;;;8.34;100.00
60355;BME280;46198;51.464;-0.066;2022-11-21T11:50:02;99126.25;;;8.45;100.00
60355;BME280;46198;51.464;-0.066;2022-11-21T11:52:47;99109.19;;;8.44;100.00
60355;BME280;46198;51.464;-0.066;2022-11-21T11:55:22;99103.53;;;8.46;100.00
60355;BME280;46198;51.464;-0.066;2022-11-21T11:57:52;99091.47;;;8.53;100.00
60355;BME280;46198;51.464;-0.066;2022-11-21T12:00:26;99083.06;;;8.50;100.00
60355;BME280;46198;51.464;-0.066;2022-11-21T12:03:00;99068.25;;;8.57;100.00
60355;BME280;46198;51.464;-0.066;2022-11-21T12:05:32;99069.09;;;8.58;100.00
60355;BME280;46198;51.464;-0.066;2022-11-21T12:08:07;99059.72;;;8.65;100.00
60355;BME280;46198;51.464;-0.066;2022-11-21T12:11:01;99061.66;;;8.70;100.00
60355;BME280;46198;51.464;-0.066;2022-11-21T12:13:51;99043.31;;;8.72;100.00
60355;BME280;46198;51.464;-0.066;2022-11-21T12:16:23;99035.78;;;8.79;100.00
60355;BME280;46198;51.464;-0.066;2022-11-21T12:18:55;99026.00;;;8.73;100.00
60355;BME280;46198;51.464;-0.066;2022-11-21T12:21:27;99015.59;;;8.87;100.00
60355;BME280;46198;51.464;-0.066;2022-11-21T12:23:57;99006.16;;;8.90;100.00
60355;BME280;46198;51.464;-0.066;2022-11-21T12:26:35;98998.09;;;8.95;100.00
60355;BME280;46198;51.464;-0.066;2022-11-21T12:29:16;98985.06;;;8.92;100.00
60355;BME280;46198;51.464;-0.066;2022-11-21T12:32:12;98978.56;;;8.93;100.00
60355;BME280;46198;51.464;-0.066;2022-11-21T12:35:04;98970.50;;;8.98;100.00
60355;BME280;46198;51.464;-0.066;2022-11-21T12:37:47;98950.00;;;9.02;100.00
60355;BME280;46198;51.464;-0.066;2022-11-21T12:40:28;98945.63;;;9.01;100.00
60355;BME280;46198;51.464;-0.066;2022-11-21T12:43:08;98922.97;;;9.07;100.00
60355;BME280;46198;51.464;-0.066;2022-11-21T12:45:42;98905.59;;;9.03;100.00
60355;BME280;46198;51.464;-0.066;2022-11-21T12:48:19;98909.91;;;8.99;100.00
60355;BME280;46198;51.464;-0.066;2022-11-21T12:51:33;98890.94;;;8.99;100.00
60355;BME280;46198;51.464;-0.066;2022-11-21T12:54:59;98875.72;;;8.93;100.00
60355;BME280;46198;51.464;-0.066;2022-11-21T12:57:42;98869.19;;;8.88;100.00
60355;BME280;46198;51.464;-0.066;2022-11-21T13:00:17;98869.16;;;8.83;100.00
60355;BME280;46198;51.464;-0.066;2022-11-21T13:03:01;98845.59;;;8.84;100.00
60355;BME280;46198;51.464;-0.066;2022-11-21T13:05:33;98846.94;;;8.81;100.00
60355;BME280;46198;51.464;-0.066;2022-11-21T13:08:06;98843.06;;;8.72;100.00
60355;BME280;46198;51.464;-0.066;2022-11-21T13:10:41;98839.19;;;8.63;100.00